Time;durP1;ratioP1;P1;durP2;ratioP2;P2;SDS_P1;SDS_P2;PMS_P1;PMS_P2;Temp;Humidity;BMP_temperature;BMP_pressure;BME280_temperature;BME280_humidity;BME280_pressure;Samples;Min_cycle;Max_cycle;Signal;HPM_P1;HPM_P2
2023/03/04 00:03:15;;;;;;;16.20;8.07;;;;;;;;;;4942747;28;20050;-67
2023/03/04 00:06:56;;;;;;;16.73;8.43;;;;;;;;;;4945127;28;20438;-69
2023/03/04 00:10:36;;;;;;;18.13;8.60;;;;;;;;;;4947659;28;20055;-67
2023/03/04 00:14:19;;;;;;;18.63;8.73;;;;;;;;;;4945041;28;20599;-66
2023/03/04 00:18:00;;;;;;;14.07;7.65;;;;;;;;;;4948778;28;20058;-68
2023/03/04 00:21:40;;;;;;;17.50;8.27;;;;;;;;;;4950037;28;20328;-69
2023/03/04 00:25:21;;;;;;;13.50;7.70;;;;;;;;;;4946577;28;20491;-69
2023/03/04 00:29:03;;;;;;;16.15;7.72;;;;;;;;;;4944548;28;20503;-66
2023/03/04 00:32:43;;;;;;;13.57;7.38;;;;;;;;;;4947089;28;20035;-71
2023/03/04 00:36:24;;;;;;;12.10;7.07;;;;;;;;;;4945940;28;20569;-69
2023/03/04 00:40:04;;;;;;;14.43;7.28;;;;;;;;;;4953221;28;20051;-69
2023/03/04 00:43:44;;;;;;;14.02;8.02;;;;;;;;;;4945222;28;20049;-69
2023/03/04 00:47:25;;;;;;;13.82;8.05;;;;;;;;;;4941440;28;20046;-67
2023/03/04 00:51:05;;;;;;;17.25;7.82;;;;;;;;;;4943025;28;20066;-68
2023/03/04 00:54:46;;;;;;;15.13;7.95;;;;;;;;;;4930546;29;20059;-67
2023/03/04 00:58:26;;;;;;;14.85;8.05;;;;;;;;;;4925927;29;20047;-69
2023/03/04 01:02:06;;;;;;;12.75;7.43;;;;;;;;;;4927680;29;20090;-69
2023/03/04 01:05:48;;;;;;;14.52;7.75;;;;;;;;;;4925458;29;20174;-66
2023/03/04 01:09:28;;;;;;;13.65;7.80;;;;;;;;;;4928288;29;20460;-67
2023/03/04 01:13:12;;;;;;;16.95;7.53;;;;;;;;;;4926888;29;20064;-68
2023/03/04 01:16:52;;;;;;;11.52;6.90;;;;;;;;;;4929013;29;20389;-70
2023/03/04 01:19:19;;;;;;;15.18;7.55;;;;;;;;;;4926431;29;20048;-68
2023/03/04 01:21:48;;;;;;;13.63;7.55;;;;;;;;;;4930443;29;20515;-67
2023/03/04 01:24:15;;;;;;;12.50;7.07;;;;;;;;;;4929105;29;20044;-68
2023/03/04 01:26:42;;;;;;;16.55;6.53;;;;;;;;;;4930993;29;20062;-68
2023/03/04 01:29:08;;;;;;;13.23;6.40;;;;;;;;;;4926936;29;20111;-66
2023/03/04 01:31:34;;;;;;;10.98;6.32;;;;;;;;;;4931406;29;20055;-68
2023/03/04 01:34:01;;;;;;;14.27;5.70;;;;;;;;;;4932019;29;20750;-68
2023/03/04 01:36:27;;;;;;;8.93;5.45;;;;;;;;;;4942628;28;20111;-65
2023/03/04 01:38:56;;;;;;;9.75;5.47;;;;;;;;;;4928799;29;20127;-66
2023/03/04 01:41:25;;;;;;;10.40;5.65;;;;;;;;;;4932668;29;20484;-66
2023/03/04 01:43:55;;;;;;;10.13;5.38;;;;;;;;;;4930829;29;20134;-66
2023/03/04 01:46:22;;;;;;;9.23;5.40;;;;;;;;;;4931847;29;20051;-66
2023/03/04 01:48:50;;;;;;;10.50;5.25;;;;;;;;;;4927039;29;20067;-68
2023/03/04 01:51:20;;;;;;;8.63;5.32;;;;;;;;;;4933326;29;20051;-66
2023/03/04 01:53:53;;;;;;;11.30;5.38;;;;;;;;;;4947199;28;20479;-66
2023/03/04 01:56:24;;;;;;;11.07;4.88;;;;;;;;;;4948758;29;20047;-66
2023/03/04 01:59:35;;;;;;;9.52;5.20;;;;;;;;;;4946521;28;20050;-65
2023/03/04 02:02:36;;;;;;;10.65;5.20;;;;;;;;;;4946986;28;20047;-67
2023/03/04 02:05:02;;;;;;;9.95;5.30;;;;;;;;;;4949111;28;20082;-65
2023/03/04 02:08:07;;;;;;;10.00;4.78;;;;;;;;;;4947338;28;20130;-67
2023/03/04 02:11:50;;;;;;;9.02;5.40;;;;;;;;;;4944682;29;20109;-65
2023/03/04 02:15:30;;;;;;;9.13;5.00;;;;;;;;;;4946089;28;20039;-65
2023/03/04 02:19:10;;;;;;;15.20;5.32;;;;;;;;;;4947051;28;20117;-66
2023/03/04 02:22:51;;;;;;;6.63;4.68;;;;;;;;;;4948198;28;20055;-65
2023/03/04 02:26:34;;;;;;;6.97;4.47;;;;;;;;;;4948856;28;20055;-65
2023/03/04 02:30:14;;;;;;;11.18;4.63;;;;;;;;;;4952880;28;20102;-66
2023/03/04 02:33:55;;;;;;;6.60;4.57;;;;;;;;;;4941130;29;20054;-66
2023/03/04 02:37:35;;;;;;;6.05;4.53;;;;;;;;;;4942365;28;20503;-66
2023/03/04 02:41:15;;;;;;;7.47;4.18;;;;;;;;;;4942009;28;20047;-66
2023/03/04 02:44:56;;;;;;;13.07;4.53;;;;;;;;;;4946504;28;21326;-65
2023/03/04 02:48:37;;;;;;;9.15;4.72;;;;;;;;;;4944575;29;20055;-66
2023/03/04 02:52:17;;;;;;;6.70;4.15;;;;;;;;;;4945766;28;20082;-65
2023/03/04 02:55:58;;;;;;;7.25;4.32;;;;;;;;;;4947254;28;20122;-67
2023/03/04 02:59:41;;;;;;;9.52;4.28;;;;;;;;;;4947199;28;20122;-67
2023/03/04 03:03:22;;;;;;;6.07;3.90;;;;;;;;;;4945020;28;20045;-66
2023/03/04 03:07:03;;;;;;;10.50;4.80;;;;;;;;;;4948286;28;20070;-66
2023/03/04 03:10:46;;;;;;;11.20;4.70;;;;;;;;;;4947780;29;20130;-67
2023/03/04 03:14:26;;;;;;;9.18;4.72;;;;;;;;;;4945262;29;20500;-67
2023/03/04 03:17:26;;;;;;;10.05;5.40;;;;;;;;;;4945729;28;20106;-68
2023/03/04 03:19:55;;;;;;;11.57;6.03;;;;;;;;;;4931183;29;20061;-67
2023/03/04 03:22:23;;;;;;;13.23;6.72;;;;;;;;;;4947863;29;20134;-68
2023/03/04 03:24:50;;;;;;;14.15;7.32;;;;;;;;;;4945945;28;20418;-67
2023/03/04 03:27:16;;;;;;;17.02;8.18;;;;;;;;;;4947616;29;20845;-68
2023/03/04 03:29:43;;;;;;;15.45;8.20;;;;;;;;;;4943699;28;20047;-66
2023/03/04 03:32:09;;;;;;;15.63;8.27;;;;;;;;;;4933328;29;20661;-67
2023/03/04 03:34:35;;;;;;;16.40;7.38;;;;;;;;;;4943893;29;20412;-68
2023/03/04 03:37:00;;;;;;;14.45;7.53;;;;;;;;;;4942150;29;20069;-67
2023/03/04 03:39:27;;;;;;;10.85;6.43;;;;;;;;;;4927468;29;20063;-65
2023/03/04 03:41:53;;;;;;;11.23;5.47;;;;;;;;;;4946906;28;20047;-67
2023/03/04 03:44:20;;;;;;;11.13;5.15;;;;;;;;;;4949569;29;20047;-66
2023/03/04 03:46:47;;;;;;;9.27;4.38;;;;;;;;;;4946715;28;20051;-68
2023/03/04 03:49:13;;;;;;;7.72;4.05;;;;;;;;;;4948258;28;20055;-67
2023/03/04 03:51:39;;;;;;;4.88;3.13;;;;;;;;;;4945707;28;20118;-68
2023/03/04 03:54:14;;;;;;;8.43;3.63;;;;;;;;;;4947457;28;20455;-70
2023/03/04 03:56:40;;;;;;;6.75;3.28;;;;;;;;;;4930888;29;20066;-66
2023/03/04 03:59:06;;;;;;;5.28;3.10;;;;;;;;;;4944385;29;20055;-66
2023/03/04 04:01:33;;;;;;;7.28;3.25;;;;;;;;;;4949001;28;20058;-66
2023/03/04 04:04:00;;;;;;;6.47;3.10;;;;;;;;;;4948984;28;20384;-67
2023/03/04 04:06:26;;;;;;;7.30;3.47;;;;;;;;;;4942137;29;20054;-68
2023/03/04 04:08:54;;;;;;;4.30;2.72;;;;;;;;;;4946155;28;20063;-67
2023/03/04 04:11:22;;;;;;;6.32;3.00;;;;;;;;;;4947454;28;20139;-69
2023/03/04 04:13:48;;;;;;;4.30;2.55;;;;;;;;;;4945658;29;20039;-67
2023/03/04 04:16:13;;;;;;;4.20;2.92;;;;;;;;;;4949390;28;20070;-66
2023/03/04 04:18:40;;;;;;;3.75;2.67;;;;;;;;;;4945037;28;20451;-67
2023/03/04 04:21:08;;;;;;;7.47;2.80;;;;;;;;;;4930134;29;20077;-66
2023/03/04 04:23:35;;;;;;;5.18;2.95;;;;;;;;;;4933055;29;20136;-66
2023/03/04 04:26:00;;;;;;;5.63;2.67;;;;;;;;;;4948075;29;20499;-66
2023/03/04 04:28:27;;;;;;;5.78;3.13;;;;;;;;;;4946691;28;20055;-66
2023/03/04 04:30:54;;;;;;;6.30;3.15;;;;;;;;;;4948092;28;20477;-64
2023/03/04 04:33:20;;;;;;;7.47;2.90;;;;;;;;;;4945419;29;20051;-67
2023/03/04 04:35:46;;;;;;;4.95;2.80;;;;;;;;;;4944159;28;20113;-66
2023/03/04 04:38:14;;;;;;;5.28;2.88;;;;;;;;;;4925140;29;20074;-66
2023/03/04 04:40:41;;;;;;;7.40;3.00;;;;;;;;;;4948099;29;20056;-67
2023/03/04 04:43:08;;;;;;;4.15;2.67;;;;;;;;;;4943525;29;20047;-67
2023/03/04 04:45:34;;;;;;;7.50;2.97;;;;;;;;;;4931069;29;20039;-67
2023/03/04 04:48:01;;;;;;;5.40;3.13;;;;;;;;;;4944065;28;20054;-65
2023/03/04 04:50:27;;;;;;;8.07;3.45;;;;;;;;;;4947106;29;20055;-65
2023/03/04 04:52:53;;;;;;;6.65;3.25;;;;;;;;;;4944957;28;20059;-66
2023/03/04 04:55:20;;;;;;;5.05;3.40;;;;;;;;;;4946217;28;20059;-66
2023/03/04 04:57:46;;;;;;;9.25;3.63;;;;;;;;;;4943462;28;20062;-66
2023/03/04 05:00:14;;;;;;;8.50;3.88;;;;;;;;;;4947418;28;20059;-66
2023/03/04 05:02:40;;;;;;;6.95;3.80;;;;;;;;;;4947182;28;20063;-65
2023/03/04 05:05:10;;;;;;;9.20;4.40;;;;;;;;;;4951430;29;20075;-66
2023/03/04 05:07:36;;;;;;;8.40;4.13;;;;;;;;;;4947059;28;20055;-66
2023/03/04 05:10:03;;;;;;;8.35;4.85;;;;;;;;;;4950326;28;20066;-66
2023/03/04 05:12:29;;;;;;;8.63;4.72;;;;;;;;;;4948138;28;20058;-66
2023/03/04 05:14:55;;;;;;;8.75;3.95;;;;;;;;;;4947596;29;20051;-66
2023/03/04 05:17:22;;;;;;;8.13;3.80;;;;;;;;;;4929906;28;20040;-65
2023/03/04 05:19:49;;;;;;;9.95;4.30;;;;;;;;;;4951771;28;20070;-65
2023/03/04 05:22:16;;;;;;;6.35;4.10;;;;;;;;;;4945793;28;20051;-65
2023/03/04 05:24:41;;;;;;;8.18;3.95;;;;;;;;;;4949137;28;20047;-64
2023/03/04 05:27:10;;;;;;;8.25;3.92;;;;;;;;;;4951011;29;20062;-66
2023/03/04 05:29:37;;;;;;;5.35;3.72;;;;;;;;;;4949237;29;20388;-65
2023/03/04 05:32:04;;;;;;;6.35;3.95;;;;;;;;;;4929626;28;20065;-69
2023/03/04 05:34:30;;;;;;;6.38;3.47;;;;;;;;;;4946644;29;20051;-66
2023/03/04 05:36:57;;;;;;;8.00;3.88;;;;;;;;;;4947006;28;20333;-66
2023/03/04 05:39:23;;;;;;;5.97;3.53;;;;;;;;;;4951532;29;20479;-65
2023/03/04 05:41:58;;;;;;;5.65;3.28;;;;;;;;;;4948661;29;20059;-65
2023/03/04 05:44:23;;;;;;;6.32;3.35;;;;;;;;;;4947921;29;20514;-66
2023/03/04 05:46:49;;;;;;;6.55;3.20;;;;;;;;;;4948222;28;20039;-66
2023/03/04 05:49:16;;;;;;;7.32;3.28;;;;;;;;;;4929217;29;20047;-68
2023/03/04 05:51:43;;;;;;;5.38;3.10;;;;;;;;;;4948648;28;20514;-64
2023/03/04 05:54:09;;;;;;;8.23;3.40;;;;;;;;;;4950552;28;20114;-65
2023/03/04 05:56:36;;;;;;;8.02;3.70;;;;;;;;;;4931602;29;20121;-66
2023/03/04 05:59:01;;;;;;;7.00;3.67;;;;;;;;;;4948646;28;20482;-67
2023/03/04 06:01:29;;;;;;;9.05;4.25;;;;;;;;;;4948623;28;20102;-66
2023/03/04 06:03:55;;;;;;;6.30;3.53;;;;;;;;;;4944463;28;20098;-66
2023/03/04 06:06:21;;;;;;;8.25;4.00;;;;;;;;;;4947919;28;20047;-66
2023/03/04 06:08:48;;;;;;;14.02;4.80;;;;;;;;;;4949120;29;20073;-64
2023/03/04 06:11:17;;;;;;;10.15;4.03;;;;;;;;;;4946244;28;20130;-66
2023/03/04 06:13:45;;;;;;;8.95;3.83;;;;;;;;;;4924993;28;20050;-66
2023/03/04 06:16:12;;;;;;;10.60;3.78;;;;;;;;;;4939552;29;20067;-66
2023/03/04 06:18:37;;;;;;;8.25;4.20;;;;;;;;;;4945865;29;21431;-67
2023/03/04 06:21:05;;;;;;;13.52;4.35;;;;;;;;;;4944085;29;20566;-65
2023/03/04 06:23:30;;;;;;;9.93;4.38;;;;;;;;;;4943594;28;20636;-67
2023/03/04 06:25:59;;;;;;;11.40;3.10;;;;;;;;;;4949482;28;20059;-67
2023/03/04 06:28:25;;;;;;;8.90;3.60;;;;;;;;;;4948306;28;20066;-66
2023/03/04 06:30:54;;;;;;;7.65;3.22;;;;;;;;;;4948543;28;20503;-67
2023/03/04 06:33:21;;;;;;;9.50;3.45;;;;;;;;;;4944842;28;20078;-67
2023/03/04 06:35:47;;;;;;;8.00;3.75;;;;;;;;;;4913658;29;20062;-65
2023/03/04 06:38:16;;;;;;;9.70;3.70;;;;;;;;;;4943975;29;20051;-67
2023/03/04 06:40:43;;;;;;;5.97;3.40;;;;;;;;;;4944252;28;20051;-67
2023/03/04 06:43:10;;;;;;;6.55;3.30;;;;;;;;;;4944637;28;20054;-67
2023/03/04 06:45:41;;;;;;;7.30;3.40;;;;;;;;;;4946649;29;20062;-67
2023/03/04 06:48:07;;;;;;;7.55;3.70;;;;;;;;;;4944185;28;20138;-68
2023/03/04 06:50:37;;;;;;;9.18;3.83;;;;;;;;;;4950259;28;20451;-68
2023/03/04 06:53:03;;;;;;;7.60;3.63;;;;;;;;;;4943775;28;20492;-68
2023/03/04 06:55:33;;;;;;;7.90;3.92;;;;;;;;;;4947048;28;20059;-68
2023/03/04 06:57:59;;;;;;;8.95;3.95;;;;;;;;;;4942715;29;20553;-68
2023/03/04 07:00:27;;;;;;;9.40;4.88;;;;;;;;;;4946504;28;20158;-68
2023/03/04 07:02:53;;;;;;;7.68;3.90;;;;;;;;;;4946415;28;20138;-66
2023/03/04 07:05:19;;;;;;;7.70;3.80;;;;;;;;;;4935995;28;20257;-66
2023/03/04 07:07:48;;;;;;;8.30;3.85;;;;;;;;;;4942344;28;20048;-67
2023/03/04 07:10:16;;;;;;;8.95;3.42;;;;;;;;;;4946745;29;20059;-69
2023/03/04 07:12:42;;;;;;;5.35;3.50;;;;;;;;;;4946120;29;20050;-66
2023/03/04 07:15:09;;;;;;;8.63;3.67;;;;;;;;;;4930491;29;20066;-67
2023/03/04 07:17:35;;;;;;;6.68;3.50;;;;;;;;;;4945037;28;20612;-67
2023/03/04 07:20:04;;;;;;;7.85;3.60;;;;;;;;;;4946782;28;20055;-72
2023/03/04 07:22:31;;;;;;;7.35;3.35;;;;;;;;;;4946898;28;20053;-67
2023/03/04 07:24:57;;;;;;;7.35;3.80;;;;;;;;;;4949492;28;20066;-67
2023/03/04 07:27:23;;;;;;;10.80;4.03;;;;;;;;;;4948870;28;20419;-66
2023/03/04 07:29:50;;;;;;;16.15;4.25;;;;;;;;;;4947929;28;20055;-67
2023/03/04 07:32:17;;;;;;;14.75;5.35;;;;;;;;;;4946355;28;20081;-69
2023/03/04 07:34:45;;;;;;;6.68;4.10;;;;;;;;;;4915311;28;20051;-65
2023/03/04 07:37:12;;;;;;;13.07;5.30;;;;;;;;;;4940269;28;20050;-69
2023/03/04 07:39:38;;;;;;;9.35;5.28;;;;;;;;;;4939075;28;20046;-67
2023/03/04 07:42:04;;;;;;;13.35;5.57;;;;;;;;;;4948805;28;20058;-65
2023/03/04 07:44:30;;;;;;;9.35;5.40;;;;;;;;;;4943450;28;20058;-66
2023/03/04 07:46:56;;;;;;;11.48;5.55;;;;;;;;;;4942164;28;20039;-66
2023/03/04 07:49:23;;;;;;;11.20;6.10;;;;;;;;;;4945229;28;20482;-67
2023/03/04 07:51:48;;;;;;;11.77;6.00;;;;;;;;;;4939548;28;20047;-70
2023/03/04 07:54:15;;;;;;;14.88;6.50;;;;;;;;;;4945445;29;20055;-66
2023/03/04 07:56:43;;;;;;;9.02;5.80;;;;;;;;;;4943323;28;20089;-69
2023/03/04 07:59:21;;;;;;;13.32;5.88;;;;;;;;;;4941308;28;20170;-66
2023/03/04 08:01:47;;;;;;;13.77;6.40;;;;;;;;;;4943623;28;20133;-66
2023/03/04 08:04:16;;;;;;;9.38;5.70;;;;;;;;;;4944734;28;20055;-69
2023/03/04 08:06:42;;;;;;;11.90;6.07;;;;;;;;;;4943714;28;20081;-68
2023/03/04 08:09:12;;;;;;;15.93;6.47;;;;;;;;;;4942074;28;20055;-68
2023/03/04 08:11:38;;;;;;;11.15;5.38;;;;;;;;;;4950877;28;21226;-67
2023/03/04 08:14:04;;;;;;;11.38;6.00;;;;;;;;;;4942487;28;20502;-68
2023/03/04 08:16:32;;;;;;;11.80;5.60;;;;;;;;;;4943558;28;20055;-67
2023/03/04 08:19:03;;;;;;;8.93;5.15;;;;;;;;;;4940357;29;20051;-68
2023/03/04 08:21:30;;;;;;;13.80;5.18;;;;;;;;;;4943090;28;20063;-68
2023/03/04 08:24:00;;;;;;;10.25;5.07;;;;;;;;;;4942559;28;20549;-67
2023/03/04 08:26:32;;;;;;;8.65;5.20;;;;;;;;;;4928569;29;20106;-67
2023/03/04 08:29:03;;;;;;;9.10;5.18;;;;;;;;;;4937584;29;20138;-67
2023/03/04 08:31:30;;;;;;;14.82;5.43;;;;;;;;;;4938441;28;20113;-68
2023/03/04 08:33:57;;;;;;;11.23;4.72;;;;;;;;;;4941319;28;20051;-66
2023/03/04 08:36:26;;;;;;;10.48;4.93;;;;;;;;;;4949709;28;20062;-67
2023/03/04 08:38:52;;;;;;;11.15;5.40;;;;;;;;;;4949867;28;20459;-66
2023/03/04 08:41:19;;;;;;;12.80;5.00;;;;;;;;;;4946296;28;20074;-68
2023/03/04 08:43:45;;;;;;;9.95;4.65;;;;;;;;;;4943294;28;20422;-68
2023/03/04 08:46:12;;;;;;;13.80;4.18;;;;;;;;;;4943578;28;20081;-65
2023/03/04 08:48:39;;;;;;;7.65;4.57;;;;;;;;;;4948268;28;20102;-67
2023/03/04 08:51:16;;;;;;;8.23;3.95;;;;;;;;;;4949879;28;20055;-69
2023/03/04 08:53:43;;;;;;;12.43;4.30;;;;;;;;;;4946845;28;20514;-67
2023/03/04 08:56:09;;;;;;;7.88;3.83;;;;;;;;;;4930746;29;20063;-63
2023/03/04 08:58:36;;;;;;;6.15;4.03;;;;;;;;;;4947700;28;20078;-63
2023/03/04 09:01:03;;;;;;;10.75;4.50;;;;;;;;;;4953073;28;20248;-64
2023/03/04 09:03:29;;;;;;;12.63;4.65;;;;;;;;;;4952517;28;20050;-64
2023/03/04 09:05:55;;;;;;;7.65;4.05;;;;;;;;;;4952142;28;20057;-64
2023/03/04 09:08:23;;;;;;;10.55;3.70;;;;;;;;;;4951454;28;20562;-63
2023/03/04 09:10:52;;;;;;;8.95;3.75;;;;;;;;;;4950447;28;20361;-64
2023/03/04 09:13:19;;;;;;;7.57;4.20;;;;;;;;;;4941486;28;20422;-65
2023/03/04 09:15:47;;;;;;;5.38;4.10;;;;;;;;;;4952105;28;20047;-64
2023/03/04 09:18:14;;;;;;;9.60;4.38;;;;;;;;;;4953421;28;20059;-64
2023/03/04 09:20:40;;;;;;;7.07;3.85;;;;;;;;;;4951884;29;20154;-64
2023/03/04 09:23:08;;;;;;;7.18;3.65;;;;;;;;;;4951010;29;20063;-64
2023/03/04 09:25:37;;;;;;;15.10;4.45;;;;;;;;;;4952175;28;20062;-64
2023/03/04 09:28:05;;;;;;;8.02;4.63;;;;;;;;;;4953199;28;20487;-68
2023/03/04 09:30:35;;;;;;;5.95;3.80;;;;;;;;;;4946918;28;20067;-64
2023/03/04 09:33:02;;;;;;;8.30;3.58;;;;;;;;;;4949084;29;20050;-63
2023/03/04 09:35:31;;;;;;;10.75;4.05;;;;;;;;;;4949147;28;20051;-65
2023/03/04 09:37:58;;;;;;;11.70;4.15;;;;;;;;;;4933425;28;20039;-63
2023/03/04 09:40:28;;;;;;;7.40;3.95;;;;;;;;;;4949866;28;20130;-63
2023/03/04 09:43:04;;;;;;;9.32;4.25;;;;;;;;;;4950607;29;20063;-63
2023/03/04 09:45:39;;;;;;;10.02;4.35;;;;;;;;;;4932790;29;20058;-64
2023/03/04 09:48:09;;;;;;;9.18;3.92;;;;;;;;;;4950180;28;20070;-65
2023/03/04 09:50:48;;;;;;;6.63;4.28;;;;;;;;;;4942820;29;20051;-67
2023/03/04 09:53:47;;;;;;;7.38;4.25;;;;;;;;;;4942388;29;20063;-66
2023/03/04 09:56:13;;;;;;;8.43;4.00;;;;;;;;;;4901678;29;20070;-64
2023/03/04 09:58:54;;;;;;;7.00;3.58;;;;;;;;;;4939013;28;20290;-65
2023/03/04 10:01:46;;;;;;;6.78;4.10;;;;;;;;;;4940573;28;20334;-63
2023/03/04 10:04:43;;;;;;;7.93;4.10;;;;;;;;;;4936093;28;20051;-62
2023/03/04 10:07:17;;;;;;;7.43;3.88;;;;;;;;;;4936513;28;20059;-64
2023/03/04 10:10:00;;;;;;;6.43;4.05;;;;;;;;;;4939619;28;20724;-62
2023/03/04 10:12:30;;;;;;;9.07;4.05;;;;;;;;;;4942478;28;20051;-65
2023/03/04 10:15:15;;;;;;;8.27;3.75;;;;;;;;;;4952404;28;20063;-64
2023/03/04 10:17:46;;;;;;;8.65;4.68;;;;;;;;;;4940596;28;20205;-65
2023/03/04 10:20:20;;;;;;;10.95;4.90;;;;;;;;;;4943688;28;20602;-63
2023/03/04 10:22:49;;;;;;;9.37;5.17;;;;;;;;;;4938136;28;20460;-63
2023/03/04 10:25:21;;;;;;;8.07;4.65;;;;;;;;;;4941815;28;20316;-62
2023/03/04 10:28:01;;;;;;;7.63;4.18;;;;;;;;;;4938383;28;20072;-63
2023/03/04 10:30:27;;;;;;;10.32;4.68;;;;;;;;;;4944120;28;20067;-67
2023/03/04 10:32:54;;;;;;;9.73;5.15;;;;;;;;;;4924526;29;20167;-64
2023/03/04 10:35:25;;;;;;;7.78;4.63;;;;;;;;;;4925019;29;20043;-62
2023/03/04 10:37:52;;;;;;;8.18;4.97;;;;;;;;;;4942540;28;20059;-63
2023/03/04 10:40:24;;;;;;;13.38;5.05;;;;;;;;;;4941281;29;20066;-65
2023/03/04 10:43:33;;;;;;;6.88;4.40;;;;;;;;;;4935620;28;20161;-65
2023/03/04 10:47:18;;;;;;;10.07;4.40;;;;;;;;;;4937948;28;20153;-64
2023/03/04 10:51:07;;;;;;;7.50;4.47;;;;;;;;;;4940869;28;20581;-65
2023/03/04 10:54:28;;;;;;;7.45;4.28;;;;;;;;;;4941435;28;20499;-67
2023/03/04 10:57:55;;;;;;;7.75;4.30;;;;;;;;;;4940546;28;20058;-66
2023/03/04 11:01:40;;;;;;;8.82;4.47;;;;;;;;;;4944889;28;20055;-63
2023/03/04 11:05:19;;;;;;;6.38;3.95;;;;;;;;;;4941211;28;20802;-64
2023/03/04 11:08:59;;;;;;;8.35;3.83;;;;;;;;;;4940144;28;20046;-63
2023/03/04 11:12:39;;;;;;;10.23;3.72;;;;;;;;;;4941931;28;20179;-64
2023/03/04 11:16:18;;;;;;;6.55;3.83;;;;;;;;;;4940005;28;20393;-66
2023/03/04 11:19:59;;;;;;;10.13;4.18;;;;;;;;;;4941049;28;20055;-65
2023/03/04 11:23:40;;;;;;;9.93;4.50;;;;;;;;;;4939300;28;20055;-63
2023/03/04 11:27:36;;;;;;;8.80;4.55;;;;;;;;;;4939644;28;20055;-63
2023/03/04 11:31:21;;;;;;;8.10;4.25;;;;;;;;;;4938751;28;20414;-65
2023/03/04 11:35:03;;;;;;;7.38;4.07;;;;;;;;;;4939958;28;20066;-66
2023/03/04 11:38:09;;;;;;;13.10;4.28;;;;;;;;;;4941888;28;20279;-66
2023/03/04 11:41:30;;;;;;;5.85;3.60;;;;;;;;;;4939677;28;20059;-67
2023/03/04 11:45:10;;;;;;;11.25;4.72;;;;;;;;;;4934930;28;20067;-66
2023/03/04 11:49:01;;;;;;;9.30;5.05;;;;;;;;;;4935664;28;20059;-65
2023/03/04 11:52:54;;;;;;;7.25;4.00;;;;;;;;;;4941292;28;20130;-62
2023/03/04 11:56:10;;;;;;;5.90;3.70;;;;;;;;;;4832669;29;20291;-65
2023/03/04 11:59:40;;;;;;;5.38;3.83;;;;;;;;;;4831286;29;20050;-65
2023/03/04 12:02:41;;;;;;;6.50;3.92;;;;;;;;;;4831501;29;20410;-63
2023/03/04 12:06:19;;;;;;;9.57;3.80;;;;;;;;;;4830861;29;20464;-64
2023/03/04 12:10:14;;;;;;;6.13;3.88;;;;;;;;;;4831064;29;20510;-65
2023/03/04 12:13:29;;;;;;;9.88;4.22;;;;;;;;;;4823313;29;20554;-63
2023/03/04 12:16:33;;;;;;;8.10;3.85;;;;;;;;;;4829094;29;20050;-66
2023/03/04 12:20:13;;;;;;;8.32;4.53;;;;;;;;;;4832571;29;20057;-65
2023/03/04 12:23:27;;;;;;;6.18;4.10;;;;;;;;;;4831283;29;20050;-65
2023/03/04 12:27:17;;;;;;;8.70;4.22;;;;;;;;;;4833572;29;20053;-66
2023/03/04 12:30:50;;;;;;;9.15;4.28;;;;;;;;;;4833240;29;20581;-65
2023/03/04 12:33:53;;;;;;;8.18;3.90;;;;;;;;;;4946622;28;20047;-65
2023/03/04 12:37:40;;;;;;;12.07;4.72;;;;;;;;;;4946700;28;20043;-63
2023/03/04 12:41:18;;;;;;;8.85;4.00;;;;;;;;;;4938569;28;20129;-63
2023/03/04 12:44:58;;;;;;;6.05;3.58;;;;;;;;;;4945388;28;20170;-62
2023/03/04 12:48:42;;;;;;;12.80;4.57;;;;;;;;;;4941710;28;20127;-64
2023/03/04 12:52:05;;;;;;;8.77;4.57;;;;;;;;;;4939169;28;20051;-65
2023/03/04 12:55:56;;;;;;;8.30;4.30;;;;;;;;;;4941845;28;20435;-65
2023/03/04 12:59:37;;;;;;;6.50;3.88;;;;;;;;;;4943874;28;20051;-68
2023/03/04 13:03:07;;;;;;;9.30;4.30;;;;;;;;;;4946420;28;20051;-66
2023/03/04 13:06:30;;;;;;;7.65;4.07;;;;;;;;;;4936980;28;20047;-67
2023/03/04 13:10:09;;;;;;;7.32;3.67;;;;;;;;;;4939144;28;20187;-65
2023/03/04 13:13:59;;;;;;;10.77;3.92;;;;;;;;;;4935787;28;20051;-66
2023/03/04 13:17:40;;;;;;;6.75;4.00;;;;;;;;;;4899433;29;20120;-72
2023/03/04 13:21:23;;;;;;;7.65;4.03;;;;;;;;;;4898495;29;20056;-66
2023/03/04 13:25:21;;;;;;;11.18;4.30;;;;;;;;;;4902160;29;20047;-68
2023/03/04 13:28:44;;;;;;;10.38;5.32;;;;;;;;;;4901321;29;20447;-68
2023/03/04 13:32:24;;;;;;;7.88;4.20;;;;;;;;;;4909440;29;20083;-68
2023/03/04 13:35:49;;;;;;;7.35;3.90;;;;;;;;;;4908473;29;20472;-68
2023/03/04 13:39:42;;;;;;;6.72;4.00;;;;;;;;;;4909337;29;20052;-67
2023/03/04 13:43:20;;;;;;;8.13;3.58;;;;;;;;;;4879355;29;20067;-67
2023/03/04 13:46:26;;;;;;;6.80;3.78;;;;;;;;;;4875129;29;20040;-67
2023/03/04 13:50:06;;;;;;;6.65;3.53;;;;;;;;;;4876553;29;20128;-65
2023/03/04 13:53:58;;;;;;;12.35;3.85;;;;;;;;;;4867417;29;20110;-67
2023/03/04 13:56:59;;;;;;;9.88;3.95;;;;;;;;;;4866339;29;20083;-68
2023/03/04 14:00:39;;;;;;;7.45;4.07;;;;;;;;;;4871042;29;20076;-66
2023/03/04 14:04:20;;;;;;;7.78;3.72;;;;;;;;;;4866498;29;20072;-67
2023/03/04 14:07:40;;;;;;;7.18;3.60;;;;;;;;;;4870391;29;20063;-68
2023/03/04 14:11:20;;;;;;;9.30;4.10;;;;;;;;;;4860447;29;20799;-67
2023/03/04 14:15:09;;;;;;;10.52;4.38;;;;;;;;;;4868819;29;20049;-69
2023/03/04 14:18:50;;;;;;;7.18;3.75;;;;;;;;;;4927333;28;20057;-69
2023/03/04 14:22:48;;;;;;;9.88;4.10;;;;;;;;;;4939711;28;20051;-68
2023/03/04 14:26:29;;;;;;;7.53;3.90;;;;;;;;;;4940885;28;20057;-69
2023/03/04 14:30:14;;;;;;;9.10;4.00;;;;;;;;;;4937724;28;20051;-68
2023/03/04 14:33:58;;;;;;;6.90;4.50;;;;;;;;;;4938954;28;20539;-68
2023/03/04 14:37:42;;;;;;;9.55;4.78;;;;;;;;;;4940842;28;20051;-68
2023/03/04 14:41:25;;;;;;;10.98;5.53;;;;;;;;;;4941842;28;20708;-68
2023/03/04 14:45:08;;;;;;;7.72;4.35;;;;;;;;;;4939804;28;20098;-66
2023/03/04 14:48:52;;;;;;;7.13;4.50;;;;;;;;;;4941934;28;20058;-67
2023/03/04 14:52:50;;;;;;;9.88;5.15;;;;;;;;;;4941349;28;20138;-67
2023/03/04 14:56:47;;;;;;;12.07;4.95;;;;;;;;;;4941729;28;20058;-69
2023/03/04 15:00:23;;;;;;;7.72;4.25;;;;;;;;;;4939541;28;20067;-67
2023/03/04 15:03:52;;;;;;;6.85;4.05;;;;;;;;;;4940885;28;20164;-65
2023/03/04 15:07:35;;;;;;;5.57;3.80;;;;;;;;;;4941148;28;20047;-66
2023/03/04 15:11:15;;;;;;;9.88;5.30;;;;;;;;;;4935592;28;20054;-68
2023/03/04 15:14:49;;;;;;;7.15;4.10;;;;;;;;;;4942598;28;20085;-66
2023/03/04 15:18:38;;;;;;;5.77;4.07;;;;;;;;;;4947836;28;20522;-70
2023/03/04 15:22:21;;;;;;;8.10;4.07;;;;;;;;;;4942863;28;20329;-68
2023/03/04 15:26:02;;;;;;;6.32;4.47;;;;;;;;;;4943836;28;20043;-66
2023/03/04 15:29:43;;;;;;;5.40;3.97;;;;;;;;;;4944646;28;20141;-68
2023/03/04 15:33:24;;;;;;;6.97;4.35;;;;;;;;;;4947152;28;20058;-69
2023/03/04 15:37:04;;;;;;;8.32;4.38;;;;;;;;;;4943950;28;20058;-68
2023/03/04 15:40:45;;;;;;;5.88;3.90;;;;;;;;;;4946862;28;20075;-66
2023/03/04 15:44:25;;;;;;;7.45;4.43;;;;;;;;;;4946787;28;20130;-67
2023/03/04 15:48:07;;;;;;;4.63;3.83;;;;;;;;;;4946498;28;20137;-67
2023/03/04 15:51:49;;;;;;;7.20;4.20;;;;;;;;;;4941811;28;20043;-66
2023/03/04 15:55:27;;;;;;;8.20;4.30;;;;;;;;;;4940873;28;20055;-67
2023/03/04 15:59:08;;;;;;;6.38;4.38;;;;;;;;;;4943945;28;20051;-68
2023/03/04 16:02:48;;;;;;;7.05;4.50;;;;;;;;;;4946798;28;20058;-68
2023/03/04 16:06:30;;;;;;;10.27;4.10;;;;;;;;;;4945065;28;20051;-66
2023/03/04 16:10:13;;;;;;;7.93;4.97;;;;;;;;;;4945710;28;20067;-68
2023/03/04 16:13:53;;;;;;;9.60;4.28;;;;;;;;;;4942744;28;20067;-68
2023/03/04 16:17:33;;;;;;;7.05;5.10;;;;;;;;;;4945125;28;20086;-66
2023/03/04 16:21:14;;;;;;;11.20;6.00;;;;;;;;;;4939157;28;20409;-67
2023/03/04 16:24:54;;;;;;;8.07;5.30;;;;;;;;;;4939556;28;20043;-75
2023/03/04 16:28:34;;;;;;;9.15;5.10;;;;;;;;;;4938665;28;20189;-69
2023/03/04 16:32:15;;;;;;;9.32;5.00;;;;;;;;;;4939299;28;20055;-66
2023/03/04 16:35:55;;;;;;;7.30;4.68;;;;;;;;;;4938748;28;20051;-67
2023/03/04 16:39:37;;;;;;;12.30;5.20;;;;;;;;;;4940345;28;20051;-68
2023/03/04 16:43:17;;;;;;;9.00;4.97;;;;;;;;;;4940708;28;20059;-69
2023/03/04 16:47:01;;;;;;;10.88;4.93;;;;;;;;;;4937792;28;20150;-68
2023/03/04 16:50:39;;;;;;;7.78;5.00;;;;;;;;;;4938074;28;20062;-69
2023/03/04 16:54:21;;;;;;;6.85;4.90;;;;;;;;;;4939735;28;20147;-66
2023/03/04 16:58:02;;;;;;;12.65;6.50;;;;;;;;;;4943040;28;20213;-67
2023/03/04 17:01:43;;;;;;;6.57;4.90;;;;;;;;;;4943640;28;20546;-68
2023/03/04 17:05:23;;;;;;;9.73;5.75;;;;;;;;;;4944237;28;20063;-68
2023/03/04 17:09:05;;;;;;;9.50;5.70;;;;;;;;;;4944157;28;20499;-68
2023/03/04 17:12:47;;;;;;;11.23;5.57;;;;;;;;;;4942844;28;20312;-66
2023/03/04 17:16:27;;;;;;;10.60;5.90;;;;;;;;;;4940193;28;20043;-69
2023/03/04 17:20:07;;;;;;;12.95;8.15;;;;;;;;;;4939702;28;20134;-69
2023/03/04 17:23:47;;;;;;;10.15;6.43;;;;;;;;;;4938617;28;20408;-67
2023/03/04 17:27:28;;;;;;;10.25;6.18;;;;;;;;;;4939102;28;20035;-68
2023/03/04 17:31:08;;;;;;;10.27;5.28;;;;;;;;;;4939867;28;20134;-68
2023/03/04 17:34:48;;;;;;;12.80;6.85;;;;;;;;;;4943641;29;20065;-67
2023/03/04 17:38:29;;;;;;;11.18;6.28;;;;;;;;;;4942799;28;20407;-65
2023/03/04 17:42:11;;;;;;;10.20;7.18;;;;;;;;;;4944435;28;20523;-68
2023/03/04 17:45:51;;;;;;;10.15;6.32;;;;;;;;;;4943217;28;20051;-69
2023/03/04 17:49:33;;;;;;;11.13;5.88;;;;;;;;;;4943182;28;20051;-69
2023/03/04 17:53:12;;;;;;;10.40;5.35;;;;;;;;;;4942408;28;20059;-66